Weather at Hernando Village Airpark, Inc Airport

Public forecast

Using degrees Fahrenheit for public forecast. Weather courtesy of forecast.io.

Closest aviation weather report (METAR) to Hernando Village Airpark, Inc Airport

Closest report is Memphis International Airport, 15.0 nm (27.7 km) NNE. Retrieved 2020/09/21 23:54 UTC (37 minutes ago):

KMEM 212354Z 11010KT 10SM FEW065 FEW085 SCT120 SCT250 24/15 A3019 RMK AO2 SLP221 T02390150 10267 20239 53002

Closest aviation forecast (TAF) to Hernando Village Airpark, Inc Airport

Closest forecast is Memphis International Airport, 15.0 nm (27.7 km) NNE. Retrieved 2020-09-22 00:33 UTC (0 seconds ago):

TAF KMEM 212330Z 2200/2306 12007KT P6SM SCT060 SCT250 FM221000 08005KT P6SM VCSH BKN100 FM221400 13007KT P6SM -SHRA OVC100 FM222000 13005KT P6SM OVC100 FM222300 09005KT P6SM OVC250